createdAt,value
2022-12-23T00:00:43.738Z,99941.32
2022-12-23T00:03:27.454Z,99942.65
2022-12-23T00:05:54.255Z,99942.20
2022-12-23T00:08:21.785Z,99931.23
2022-12-23T00:10:50.429Z,99928.27
2022-12-23T00:13:36.753Z,99929.89
2022-12-23T00:16:10.291Z,99937.30
2022-12-23T00:18:38.029Z,99938.11
2022-12-23T00:21:09.111Z,99935.81
2022-12-23T00:23:40.297Z,99934.05
2022-12-23T00:26:12.352Z,99936.23
2022-12-23T00:28:39.133Z,99929.85
2022-12-23T00:31:07.299Z,99925.93
2022-12-23T00:33:45.297Z,99917.63
2022-12-23T00:36:22.723Z,99910.59
2022-12-23T00:39:08.886Z,99909.05
2022-12-23T00:42:07.814Z,99912.22
2022-12-23T00:44:34.513Z,99908.27
2022-12-23T00:47:01.319Z,99909.13
2022-12-23T00:49:43.357Z,99908.52
2022-12-23T00:52:13.208Z,99907.16
2022-12-23T00:54:40.116Z,99909.33
2022-12-23T00:57:07.163Z,99908.46
2022-12-23T00:59:36.393Z,99902.47
2022-12-23T01:02:21.912Z,99898.67
2022-12-23T01:05:07.566Z,99891.25
2022-12-23T01:07:34.451Z,99887.34
2022-12-23T01:10:01.303Z,99887.86
2022-12-23T01:12:28.261Z,99889.98
2022-12-23T01:14:55.125Z,99888.52
2022-12-23T01:17:21.867Z,99885.86
2022-12-23T01:19:48.855Z,99883.69
2022-12-23T01:22:15.730Z,99880.20
2022-12-23T01:24:42.548Z,99874.14
2022-12-23T01:27:10.548Z,99875.20
2022-12-23T01:29:40.321Z,99876.73
2022-12-23T01:32:09.806Z,99875.33
2022-12-23T01:34:37.695Z,99878.39
2022-12-23T01:37:05.817Z,99875.37
2022-12-23T01:39:32.571Z,99871.17
2022-12-23T01:42:17.789Z,99873.29
2022-12-23T01:44:56.088Z,99875.30
2022-12-23T01:47:29.069Z,99875.53
2022-12-23T01:50:07.232Z,99872.54
2022-12-23T01:52:39.449Z,99868.96
2022-12-23T01:55:08.511Z,99869.08
2022-12-23T01:57:39.623Z,99872.02
2022-12-23T02:00:26.745Z,99873.40
2022-12-23T02:03:14.756Z,99877.04
2022-12-23T02:05:45.345Z,99876.66
2022-12-23T02:08:32.800Z,99871.14
2022-12-23T02:11:32.284Z,99871.30
2022-12-23T02:14:56.022Z,99870.55
2022-12-23T02:17:32.098Z,99872.38
2022-12-23T02:20:03.100Z,99869.73
2022-12-23T02:22:56.115Z,99864.61
2022-12-23T02:25:45.612Z,99861.48
2022-12-23T02:28:54.138Z,99856.12
2022-12-23T02:31:27.272Z,99855.23
2022-12-23T02:34:15.025Z,99856.05
2022-12-23T02:37:04.555Z,99854.69
2022-12-23T02:39:54.006Z,99853.42
2022-12-23T02:42:25.823Z,99851.98
2022-12-23T02:45:19.270Z,99851.39
2022-12-23T02:47:58.871Z,99850.59
2022-12-23T02:50:31.809Z,99848.59
2022-12-23T02:53:06.314Z,99848.21
2022-12-23T02:55:36.286Z,99848.33
2022-12-23T02:58:09.282Z,99844.25
2022-12-23T03:00:40.041Z,99846.54
2022-12-23T03:03:06.725Z,99843.65
2022-12-23T03:05:42.208Z,99837.59
2022-12-23T03:08:23.291Z,99834.06
2022-12-23T03:10:59.040Z,99831.31
2022-12-23T03:13:36.786Z,99837.92
2022-12-23T03:16:24.869Z,99839.98
2022-12-23T03:19:07.008Z,99840.80
2022-12-23T03:22:08.355Z,99838.51
2022-12-23T03:24:43.492Z,99839.41
2022-12-23T03:27:14.981Z,99838.48
2022-12-23T03:29:54.099Z,99833.31
2022-12-23T03:32:21.740Z,99823.98
2022-12-23T03:34:52.759Z,99822.45
2022-12-23T03:37:22.000Z,99819.17
2022-12-23T03:40:15.450Z,99824.33
2022-12-23T03:42:46.363Z,99820.32
2022-12-23T03:45:40.791Z,99818.13
2022-12-23T03:48:33.647Z,99816.33
2022-12-23T03:51:17.639Z,99812.40
2022-12-23T03:54:10.005Z,99803.59
2022-12-23T03:56:49.068Z,99808.17
2022-12-23T03:59:32.348Z,99811.44
2022-12-23T04:02:15.202Z,99813.33
2022-12-23T04:05:19.783Z,99813.34
2022-12-23T04:07:55.886Z,99811.50
2022-12-23T04:10:24.431Z,99814.73
2022-12-23T04:12:52.105Z,99808.81
2022-12-23T04:15:21.725Z,99805.56
2022-12-23T04:17:50.321Z,99801.77
2022-12-23T04:20:17.532Z,99805.41
2022-12-23T04:22:44.368Z,99807.95
2022-12-23T04:25:13.256Z,99812.88
2022-12-23T04:27:40.416Z,99813.36
2022-12-23T04:30:09.322Z,99806.92
2022-12-23T04:32:36.509Z,99800.56
2022-12-23T04:35:04.179Z,99801.85
2022-12-23T04:37:30.958Z,99803.52
2022-12-23T04:39:57.808Z,99801.81
2022-12-23T04:42:24.634Z,99799.23
2022-12-23T04:44:51.268Z,99793.18
2022-12-23T04:47:18.826Z,99793.65
2022-12-23T04:49:46.999Z,99791.54
2022-12-23T04:52:13.874Z,99784.56
2022-12-23T04:54:45.824Z,99782.37
2022-12-23T04:57:14.642Z,99784.20
2022-12-23T04:59:42.011Z,99787.59
2022-12-23T05:02:09.677Z,99793.91
2022-12-23T05:04:36.859Z,99802.04
2022-12-23T05:07:03.757Z,99804.48
2022-12-23T05:09:30.645Z,99805.46
2022-12-23T05:12:01.741Z,99803.38
2022-12-23T05:14:28.550Z,99808.51
2022-12-23T05:17:03.579Z,99817.05
2022-12-23T05:19:33.922Z,99818.80
2022-12-23T05:22:00.983Z,99819.59
2022-12-23T05:24:30.567Z,99817.77
2022-12-23T05:27:00.717Z,99816.89
2022-12-23T05:29:34.739Z,99820.58
2022-12-23T05:32:02.207Z,99821.02
2022-12-23T05:34:29.114Z,99816.19
2022-12-23T05:36:56.105Z,99818.35
2022-12-23T05:39:25.633Z,99817.30
2022-12-23T05:41:55.017Z,99817.66
2022-12-23T05:44:24.289Z,99813.78
2022-12-23T05:46:58.690Z,99812.16
2022-12-23T05:49:26.169Z,99814.61
2022-12-23T05:51:55.015Z,99810.12
2022-12-23T05:54:21.795Z,99810.12
2022-12-23T05:56:49.132Z,99811.22
2022-12-23T05:59:15.991Z,99812.85
2022-12-23T06:01:42.929Z,99818.96
2022-12-23T06:04:10.090Z,99821.61
2022-12-23T06:06:38.067Z,99824.90
2022-12-23T06:09:05.173Z,99823.87
2022-12-23T06:11:32.145Z,99823.67
2022-12-23T06:13:58.992Z,99826.60
2022-12-23T06:16:25.974Z,99829.35
2022-12-23T06:18:56.228Z,99828.38
2022-12-23T06:21:25.146Z,99829.36
2022-12-23T06:23:52.890Z,99828.82
2022-12-23T06:26:20.666Z,99831.50
2022-12-23T06:28:48.153Z,99834.72
2022-12-23T06:31:15.338Z,99836.77
2022-12-23T06:33:42.145Z,99833.85
2022-12-23T06:36:09.112Z,99829.23
2022-12-23T06:38:36.010Z,99827.11
2022-12-23T06:41:02.991Z,99827.18
2022-12-23T06:43:29.830Z,99829.45
2022-12-23T06:45:56.681Z,99833.00
2022-12-23T06:48:23.781Z,99834.77
2022-12-23T06:50:50.588Z,99838.51
2022-12-23T06:53:17.507Z,99841.15
2022-12-23T06:55:45.007Z,99839.13
2022-12-23T06:58:11.975Z,99841.45
2022-12-23T07:00:38.811Z,99842.02
2022-12-23T07:03:06.284Z,99846.57
2022-12-23T07:05:37.605Z,99845.98
2022-12-23T07:08:05.160Z,99850.20
2022-12-23T07:10:34.282Z,99848.63
2022-12-23T07:13:02.120Z,99850.22
2022-12-23T07:15:28.811Z,99842.30
2022-12-23T07:17:55.666Z,99836.20
2022-12-23T07:20:22.552Z,99835.39
2022-12-23T07:22:49.928Z,99839.14
2022-12-23T07:25:16.781Z,99844.39
2022-12-23T07:27:43.882Z,99842.44
2022-12-23T07:30:11.088Z,99842.70
2022-12-23T07:32:37.903Z,99842.91
2022-12-23T07:35:07.527Z,99839.27
2022-12-23T07:37:34.838Z,99839.77
2022-12-23T07:40:08.335Z,99845.19
2022-12-23T07:42:46.822Z,99846.69
2022-12-23T07:45:25.504Z,99850.64
2022-12-23T07:47:54.029Z,99851.29
2022-12-23T07:50:21.929Z,99853.17
2022-12-23T07:52:52.216Z,99858.92
2022-12-23T07:55:23.358Z,99863.46
2022-12-23T07:57:52.108Z,99869.56
2022-12-23T08:00:20.650Z,99872.52
2022-12-23T08:02:47.955Z,99873.19
2022-12-23T08:05:15.904Z,99875.52
2022-12-23T08:07:49.525Z,99876.53
2022-12-23T08:10:17.042Z,99881.83
2022-12-23T08:12:45.849Z,99876.30
2022-12-23T08:15:20.923Z,99877.20
2022-12-23T08:18:06.096Z,99879.16
2022-12-23T08:20:35.288Z,99879.94
2022-12-23T08:23:24.687Z,99883.39
2022-12-23T08:26:33.043Z,99886.56
2022-12-23T08:29:39.614Z,99889.44
2022-12-23T08:32:09.372Z,99889.84
2022-12-23T08:34:39.388Z,99889.69
2022-12-23T08:37:06.322Z,99889.88
2022-12-23T08:39:33.373Z,99890.93
2022-12-23T08:42:00.788Z,99884.63
2022-12-23T08:44:33.207Z,99881.95
2022-12-23T08:47:01.762Z,99884.63
2022-12-23T08:49:28.823Z,99886.21
2022-12-23T08:51:55.748Z,99886.92
2022-12-23T08:54:24.725Z,99885.24
2022-12-23T08:56:56.330Z,99883.09
2022-12-23T08:59:25.663Z,99883.06
2022-12-23T09:01:52.549Z,99882.64
2022-12-23T09:04:23.808Z,99879.77
2022-12-23T09:06:53.171Z,99876.05
2022-12-23T09:09:20.353Z,99873.75
2022-12-23T09:11:51.631Z,99869.09
2022-12-23T09:14:18.815Z,99865.05
2022-12-23T09:16:51.299Z,99863.05
2022-12-23T09:19:25.922Z,99861.44
2022-12-23T09:21:53.231Z,99863.42
2022-12-23T09:24:32.051Z,99867.66
2022-12-23T09:27:06.370Z,99869.92
2022-12-23T09:29:33.423Z,99871.89
2022-12-23T09:32:28.102Z,99867.80
2022-12-23T09:34:57.683Z,99867.75
2022-12-23T09:37:31.446Z,99867.09
2022-12-23T09:40:02.752Z,99865.94
2022-12-23T09:42:35.876Z,99860.14
2022-12-23T09:46:06.117Z,99858.42
2022-12-23T09:48:47.105Z,99863.31
2022-12-23T09:51:19.226Z,99867.76
2022-12-23T09:54:17.192Z,99867.75
2022-12-23T09:56:53.588Z,99862.66
2022-12-23T09:59:50.812Z,99854.11
2022-12-23T10:02:29.952Z,99847.92
2022-12-23T10:05:19.289Z,99845.74
2022-12-23T10:08:22.952Z,99844.36
2022-12-23T10:11:16.645Z,99846.18
2022-12-23T10:14:20.551Z,99859.41
2022-12-23T10:16:59.532Z,99864.70
2022-12-23T10:19:42.701Z,99862.86
2022-12-23T10:22:28.710Z,99860.55
2022-12-23T10:25:01.524Z,99859.34
2022-12-23T10:27:49.998Z,99857.52
2022-12-23T10:33:21.389Z,99844.88
2022-12-23T10:36:10.791Z,99841.11
2022-12-23T10:38:54.007Z,99842.63
2022-12-23T10:41:23.675Z,99842.86
2022-12-23T10:44:18.191Z,99839.91
2022-12-23T10:47:00.314Z,99834.10
2022-12-23T10:49:42.564Z,99830.41
2022-12-23T10:52:15.987Z,99832.98
2022-12-23T10:54:46.619Z,99830.25
2022-12-23T10:57:17.133Z,99826.14
2022-12-23T10:59:44.267Z,99819.30
2022-12-23T11:02:13.713Z,99815.40
2022-12-23T11:04:43.788Z,99811.43
2022-12-23T11:07:49.165Z,99817.70
2022-12-23T11:10:20.273Z,99825.90
2022-12-23T11:12:57.403Z,99830.90
2022-12-23T11:15:35.931Z,99832.50
2022-12-23T11:18:08.546Z,99821.25
2022-12-23T11:20:39.395Z,99818.86
2022-12-23T11:23:24.315Z,99818.90
2022-12-23T11:26:10.408Z,99811.48
2022-12-23T11:28:46.861Z,99804.17
2022-12-23T11:31:17.649Z,99788.27
2022-12-23T11:34:02.162Z,99776.27
2022-12-23T11:36:32.141Z,99765.11
2022-12-23T11:39:14.304Z,99762.00
2022-12-23T11:41:47.316Z,99762.94
2022-12-23T11:44:30.085Z,99761.05
2022-12-23T11:47:06.845Z,99751.79
2022-12-23T11:49:33.745Z,99749.11
2022-12-23T11:52:14.374Z,99744.91
2022-12-23T11:54:54.229Z,99736.42
2022-12-23T11:57:51.276Z,99726.69
2022-12-23T12:00:27.186Z,99721.11
2022-12-23T12:03:03.220Z,99719.23
2022-12-23T12:05:41.030Z,99714.45
2022-12-23T12:08:14.783Z,99703.45
2022-12-23T12:11:04.447Z,99701.70
2022-12-23T12:13:38.176Z,99700.80
2022-12-23T12:16:18.135Z,99695.67
2022-12-23T12:18:52.091Z,99698.23
2022-12-23T12:21:27.795Z,99699.04
2022-12-23T12:24:24.112Z,99697.10
2022-12-23T12:26:54.113Z,99698.30
2022-12-23T12:29:31.395Z,99695.38
2022-12-23T12:32:54.467Z,99688.86
2022-12-23T12:35:31.047Z,99680.71
2022-12-23T12:38:19.442Z,99681.06
2022-12-23T12:40:54.147Z,99681.05
2022-12-23T12:43:31.297Z,99676.92
2022-12-23T12:46:10.168Z,99677.80
2022-12-23T12:48:47.734Z,99676.59
2022-12-23T12:51:27.146Z,99678.16
2022-12-23T12:54:06.559Z,99680.10
2022-12-23T12:56:41.280Z,99670.13
2022-12-23T12:59:15.927Z,99672.58
2022-12-23T13:01:45.720Z,99678.30
2022-12-23T13:04:15.494Z,99679.37
2022-12-23T13:07:01.607Z,99681.63
2022-12-23T13:09:40.335Z,99680.25
2022-12-23T13:12:17.616Z,99680.02
2022-12-23T13:15:10.741Z,99671.75
2022-12-23T13:18:03.650Z,99669.61
2022-12-23T13:21:06.774Z,99668.57
2022-12-23T13:24:03.781Z,99666.89
2022-12-23T13:27:25.810Z,99668.61
2022-12-23T13:30:23.000Z,99667.98
2022-12-23T13:33:38.068Z,99666.31
2022-12-23T13:36:12.572Z,99669.23
2022-12-23T13:39:02.452Z,99677.76
2022-12-23T13:41:40.005Z,99679.20
2022-12-23T13:44:12.412Z,99683.66
2022-12-23T13:46:50.946Z,99694.55
2022-12-23T13:49:44.493Z,99701.09
2022-12-23T13:52:22.936Z,99713.15
2022-12-23T13:54:58.084Z,99708.95
2022-12-23T13:57:35.145Z,99709.67
2022-12-23T14:00:18.430Z,99712.33
2022-12-23T14:03:16.331Z,99713.65
2022-12-23T14:05:45.700Z,99708.42
2022-12-23T14:08:18.463Z,99704.45
2022-12-23T14:11:00.496Z,99704.42
2022-12-23T14:13:33.567Z,99711.65
2022-12-23T14:16:16.580Z,99715.88
2022-12-23T14:19:00.804Z,99717.58
2022-12-23T14:21:52.711Z,99721.06
2022-12-23T14:24:47.889Z,99723.71
2022-12-23T14:27:33.358Z,99726.59
2022-12-23T14:30:25.223Z,99720.36
2022-12-23T14:32:58.231Z,99718.21
2022-12-23T14:35:33.384Z,99716.62
2022-12-23T14:38:14.236Z,99710.14
2022-12-23T14:40:53.175Z,99713.24
2022-12-23T14:43:23.067Z,99713.27
2022-12-23T14:45:52.894Z,99709.92
2022-12-23T14:48:35.053Z,99711.94
2022-12-23T14:51:22.592Z,99716.79
2022-12-23T14:53:53.125Z,99727.14
2022-12-23T14:56:46.906Z,99728.70
2022-12-23T14:59:46.521Z,99730.31
2022-12-23T15:02:21.997Z,99731.23
2022-12-23T15:04:54.036Z,99733.33
2022-12-23T15:07:40.155Z,99738.19
2022-12-23T15:10:16.266Z,99741.06
2022-12-23T15:12:47.751Z,99737.09
2022-12-23T15:15:49.835Z,99736.86
2022-12-23T15:18:16.535Z,99739.80
2022-12-23T15:20:47.963Z,99745.84
2022-12-23T15:23:17.565Z,99755.05
2022-12-23T15:25:47.326Z,99755.02
2022-12-23T15:28:17.511Z,99752.47
2022-12-23T15:30:56.131Z,99756.30
2022-12-23T15:36:31.409Z,99762.83
2022-12-23T15:39:00.135Z,99757.16
2022-12-23T15:41:28.676Z,99746.52
2022-12-23T15:44:02.969Z,99739.97
2022-12-23T15:46:31.162Z,99731.13
2022-12-23T15:49:21.287Z,99724.04
2022-12-23T15:52:12.592Z,99723.08
2022-12-23T15:54:51.181Z,99717.94
2022-12-23T15:57:20.905Z,99710.70
2022-12-23T15:59:48.529Z,99706.92
2022-12-23T16:05:33.809Z,99691.95
2022-12-23T16:08:12.807Z,99689.45
2022-12-23T16:10:44.780Z,99692.77
2022-12-23T16:13:19.881Z,99685.58
2022-12-23T16:15:46.795Z,99680.27
2022-12-23T16:18:32.107Z,99678.97
2022-12-23T16:21:05.849Z,99681.85
2022-12-23T16:23:43.381Z,99682.73
2022-12-23T16:26:12.419Z,99691.88
2022-12-23T16:28:46.580Z,99685.89
2022-12-23T16:31:19.167Z,99686.58
2022-12-23T16:33:57.898Z,99686.32
2022-12-23T16:36:24.618Z,99684.24
2022-12-23T16:39:23.440Z,99686.55
2022-12-23T16:41:51.407Z,99688.49
2022-12-23T16:44:19.375Z,99688.27
2022-12-23T16:46:53.830Z,99686.95
2022-12-23T16:49:33.765Z,99685.67
2022-12-23T16:52:19.258Z,99686.29
2022-12-23T16:54:51.772Z,99684.30
2022-12-23T16:57:19.596Z,99684.02
2022-12-23T16:59:49.879Z,99684.11
2022-12-23T17:02:21.983Z,99680.77
2022-12-23T17:04:48.631Z,99682.91
2022-12-23T17:07:15.601Z,99683.16
2022-12-23T17:09:42.685Z,99684.92
2022-12-23T17:12:13.291Z,99682.02
2022-12-23T17:14:43.762Z,99681.63
2022-12-23T17:17:15.014Z,99678.42
2022-12-23T17:19:43.014Z,99681.52
2022-12-23T17:22:14.436Z,99687.59
2022-12-23T17:24:44.338Z,99693.11
2022-12-23T17:27:13.765Z,99685.55
2022-12-23T17:29:44.932Z,99686.38
2022-12-23T17:32:16.026Z,99688.75
2022-12-23T17:34:43.036Z,99690.57
2022-12-23T17:37:18.996Z,99690.13
2022-12-23T17:39:47.246Z,99690.84
2022-12-23T17:42:25.840Z,99693.84
2022-12-23T17:44:53.074Z,99690.33
2022-12-23T17:47:22.118Z,99690.05
2022-12-23T17:49:50.772Z,99684.80
2022-12-23T17:52:22.633Z,99683.04
2022-12-23T17:54:51.229Z,99678.41
2022-12-23T17:57:23.390Z,99678.91
2022-12-23T17:59:52.290Z,99678.48
2022-12-23T18:02:34.320Z,99679.83
2022-12-23T18:05:28.819Z,99678.43
2022-12-23T18:07:59.233Z,99677.11
2022-12-23T18:10:40.054Z,99674.01
2022-12-23T18:13:14.886Z,99671.69
2022-12-23T18:16:02.784Z,99668.40
2022-12-23T18:18:39.296Z,99671.10
2022-12-23T18:21:32.974Z,99672.09
2022-12-23T18:24:09.524Z,99666.67
2022-12-23T18:26:36.387Z,99661.27
2022-12-23T18:29:03.380Z,99658.61
2022-12-23T18:31:30.408Z,99665.81
2022-12-23T18:34:00.462Z,99667.40
2022-12-23T18:36:37.627Z,99663.73
2022-12-23T18:39:04.491Z,99663.23
2022-12-23T18:41:31.334Z,99666.66
2022-12-23T18:43:58.163Z,99668.10
2022-12-23T18:46:24.908Z,99672.77
2022-12-23T18:48:51.744Z,99672.02
2022-12-23T18:51:23.228Z,99668.02
2022-12-23T18:53:49.964Z,99669.85
2022-12-23T18:56:20.405Z,99669.34
2022-12-23T18:58:47.098Z,99666.83
2022-12-23T19:01:15.741Z,99663.70
2022-12-23T19:03:43.000Z,99664.60
2022-12-23T19:06:14.956Z,99664.72
2022-12-23T19:08:44.851Z,99661.41
2022-12-23T19:11:17.607Z,99658.52
2022-12-23T19:13:45.296Z,99661.60
2022-12-23T19:16:19.919Z,99659.42
2022-12-23T19:18:48.229Z,99657.94
2022-12-23T19:21:16.976Z,99656.61
2022-12-23T19:23:48.614Z,99651.41
2022-12-23T19:26:22.686Z,99656.55
2022-12-23T19:28:52.229Z,99650.17
2022-12-23T19:31:19.245Z,99648.52
2022-12-23T19:33:51.128Z,99645.98
2022-12-23T19:36:23.668Z,99648.45
2022-12-23T19:38:50.683Z,99650.13
2022-12-23T19:41:18.446Z,99651.66
2022-12-23T19:43:46.847Z,99646.71
2022-12-23T19:46:15.097Z,99650.20
2022-12-23T19:48:42.103Z,99655.02
2022-12-23T19:51:11.471Z,99655.77
2022-12-23T19:53:39.741Z,99656.66
2022-12-23T19:56:16.281Z,99660.14
2022-12-23T19:58:45.264Z,99664.89
2022-12-23T20:01:23.386Z,99667.05
2022-12-23T20:03:52.215Z,99670.71
2022-12-23T20:06:29.251Z,99671.14
2022-12-23T20:09:03.703Z,99670.91
2022-12-23T20:11:35.159Z,99680.15
2022-12-23T20:14:04.006Z,99680.95
2022-12-23T20:16:31.078Z,99679.55
2022-12-23T20:18:57.927Z,99679.90
2022-12-23T20:21:24.746Z,99677.70
2022-12-23T20:23:54.737Z,99682.48
2022-12-23T20:26:23.202Z,99688.27
2022-12-23T20:28:55.591Z,99688.22
2022-12-23T20:31:31.762Z,99689.70
2022-12-23T20:34:00.748Z,99691.16
2022-12-23T20:36:30.327Z,99693.07
2022-12-23T20:38:57.519Z,99694.13
2022-12-23T20:41:27.553Z,99693.73
2022-12-23T20:44:32.232Z,99694.15
2022-12-23T20:46:41.694Z,99696.17
2022-12-23T20:49:11.372Z,99698.72
2022-12-23T20:51:38.716Z,99698.73
2022-12-23T20:54:05.460Z,99704.67
2022-12-23T20:56:33.245Z,99704.96
2022-12-23T20:59:03.399Z,99705.39
2022-12-23T21:01:38.619Z,99703.89
2022-12-23T21:04:11.189Z,99701.22
2022-12-23T21:06:38.519Z,99698.71
2022-12-23T21:09:08.167Z,99697.47
2022-12-23T21:11:38.191Z,99696.91
2022-12-23T21:14:07.207Z,99696.33
2022-12-23T21:16:36.206Z,99695.69
2022-12-23T21:19:04.562Z,99688.50
2022-12-23T21:21:31.284Z,99690.52
2022-12-23T21:24:00.982Z,99688.55
2022-12-23T21:26:30.369Z,99689.41
2022-12-23T21:28:59.513Z,99687.65
2022-12-23T21:31:28.126Z,99691.41
2022-12-23T21:33:56.087Z,99694.56
2022-12-23T21:36:34.923Z,99699.66
2022-12-23T21:39:02.983Z,99699.59
2022-12-23T21:41:31.422Z,99696.30
2022-12-23T21:43:59.589Z,99690.01
2022-12-23T21:46:28.082Z,99686.85
2022-12-23T21:48:56.972Z,99684.88
2022-12-23T21:51:36.652Z,99678.25
2022-12-23T21:54:07.165Z,99678.13
2022-12-23T21:56:34.246Z,99676.17
2022-12-23T21:59:12.276Z,99684.80
2022-12-23T22:01:42.752Z,99683.95
2022-12-23T22:04:12.774Z,99683.90
2022-12-23T22:06:51.082Z,99681.25
2022-12-23T22:09:19.058Z,99673.44
2022-12-23T22:11:47.542Z,99674.02
2022-12-23T22:14:17.034Z,99669.88
2022-12-23T22:16:48.427Z,99669.84
2022-12-23T22:19:20.359Z,99667.95
2022-12-23T22:21:59.447Z,99667.39
2022-12-23T22:24:28.454Z,99671.36
2022-12-23T22:26:58.995Z,99666.42
2022-12-23T22:29:32.604Z,99668.44
2022-12-23T22:32:03.302Z,99671.52
2022-12-23T22:34:31.794Z,99675.23
2022-12-23T22:37:01.807Z,99682.77
2022-12-23T22:39:38.360Z,99691.61
2022-12-23T22:42:29.522Z,99687.71
2022-12-23T22:45:01.840Z,99681.20
2022-12-23T22:47:47.181Z,99683.33
2022-12-23T22:50:19.995Z,99689.77
2022-12-23T22:52:50.587Z,99682.05
2022-12-23T22:55:24.037Z,99679.02
2022-12-23T22:57:59.759Z,99679.48
2022-12-23T23:00:29.058Z,99671.34
2022-12-23T23:02:59.861Z,99662.60
2022-12-23T23:05:26.726Z,99660.27
2022-12-23T23:08:01.710Z,99658.00
2022-12-23T23:10:31.071Z,99657.15
2022-12-23T23:13:01.152Z,99665.80
2022-12-23T23:15:30.591Z,99669.52
2022-12-23T23:17:59.779Z,99665.19
2022-12-23T23:20:26.572Z,99665.91
2022-12-23T23:22:55.857Z,99666.48
2022-12-23T23:25:26.368Z,99663.34
2022-12-23T23:27:53.166Z,99660.69
2022-12-23T23:30:19.968Z,99661.44
2022-12-23T23:32:46.934Z,99653.40
2022-12-23T23:35:18.002Z,99654.04
2022-12-23T23:37:54.109Z,99648.53
2022-12-23T23:40:23.382Z,99650.98
2022-12-23T23:42:50.112Z,99654.38
2022-12-23T23:45:18.111Z,99653.52
2022-12-23T23:47:44.866Z,99649.98
2022-12-23T23:50:11.540Z,99656.23
2022-12-23T23:52:38.190Z,99656.73
2022-12-23T23:55:05.799Z,99653.09
2022-12-23T23:57:36.867Z,99645.80
